createdAt,value
2022-09-23T00:02:16.960Z,101444.38
2022-09-23T00:04:44.190Z,101449.00
2022-09-23T00:07:11.349Z,101452.84
2022-09-23T00:09:39.413Z,101453.66
2022-09-23T00:12:09.030Z,101445.66
2022-09-23T00:14:37.139Z,101446.75
2022-09-23T00:17:04.348Z,101453.06
2022-09-23T00:19:31.490Z,101449.50
2022-09-23T00:21:58.590Z,101453.91
2022-09-23T00:24:25.708Z,101442.09
2022-09-23T00:26:55.421Z,101447.59
2022-09-23T00:29:23.645Z,101450.31
2022-09-23T00:31:50.955Z,101448.19
2022-09-23T00:34:18.111Z,101446.53
2022-09-23T00:36:45.194Z,101442.09
2022-09-23T00:39:12.423Z,101444.59
2022-09-23T00:41:39.551Z,101447.34
2022-09-23T00:44:27.550Z,101437.69
2022-09-23T00:46:54.636Z,101440.44
2022-09-23T00:49:26.073Z,101440.44
2022-09-23T00:51:58.763Z,101433.03
2022-09-23T00:54:27.367Z,101435.28
2022-09-23T00:56:54.833Z,101427.91
2022-09-23T00:59:21.932Z,101428.97
2022-09-23T01:01:49.712Z,101427.91
2022-09-23T01:04:16.939Z,101427.31
2022-09-23T01:06:44.423Z,101427.53
2022-09-23T01:09:11.532Z,101422.88
2022-09-23T01:11:44.502Z,101419.06
2022-09-23T01:14:28.193Z,101423.72
2022-09-23T01:17:14.215Z,101418.47
2022-09-23T01:19:50.288Z,101416.56
2022-09-23T01:22:20.715Z,101410.47
2022-09-23T01:24:47.811Z,101415.97
2022-09-23T01:27:35.161Z,101415.38
2022-09-23T01:30:10.724Z,101411.81
2022-09-23T01:32:37.795Z,101408.19
2022-09-23T01:35:07.810Z,101410.72
2022-09-23T01:37:53.752Z,101410.72
2022-09-23T01:40:22.641Z,101403.56
2022-09-23T01:43:11.920Z,101402.72
2022-09-23T01:45:41.471Z,101399.13
2022-09-23T01:48:14.530Z,101403.81
2022-09-23T01:50:58.125Z,101399.38
2022-09-23T01:53:28.064Z,101397.72
2022-09-23T01:55:57.291Z,101405.94
2022-09-23T01:58:25.371Z,101395.81
2022-09-23T02:01:00.812Z,101392.47
2022-09-23T02:03:29.001Z,101391.41
2022-09-23T02:06:16.090Z,101397.72
2022-09-23T02:09:12.873Z,101385.91
2022-09-23T02:11:41.646Z,101394.75
2022-09-23T02:14:15.507Z,101389.47
2022-09-23T02:16:51.710Z,101394.75
2022-09-23T02:19:24.841Z,101389.00
2022-09-23T02:22:00.198Z,101383.75
2022-09-23T02:24:30.822Z,101392.81
2022-09-23T02:27:07.878Z,101392.00
2022-09-23T02:29:41.278Z,101388.66
2022-09-23T02:32:18.380Z,101387.81
2022-09-23T02:34:45.509Z,101384.22
2022-09-23T02:37:18.958Z,101380.88
2022-09-23T02:40:05.411Z,101374.56
2022-09-23T02:42:52.840Z,101379.19
2022-09-23T02:45:20.008Z,101378.59
2022-09-23T02:47:48.027Z,101369.56
2022-09-23T02:50:15.308Z,101375.63
2022-09-23T02:52:42.971Z,101379.19
2022-09-23T02:55:11.019Z,101377.31
2022-09-23T02:57:38.127Z,101371.56
2022-09-23T03:00:05.521Z,101375.16
2022-09-23T03:02:56.033Z,101374.56
2022-09-23T03:05:27.306Z,101366.56
2022-09-23T03:08:04.414Z,101371.22
2022-09-23T03:10:44.716Z,101359.41
2022-09-23T03:13:17.863Z,101366.81
2022-09-23T03:15:56.271Z,101364.88
2022-09-23T03:18:26.080Z,101361.09
2022-09-23T03:20:57.743Z,101361.91
2022-09-23T03:23:26.451Z,101357.75
2022-09-23T03:25:54.842Z,101350.56
2022-09-23T03:28:22.009Z,101357.97
2022-09-23T03:30:50.012Z,101345.09
2022-09-23T03:33:20.921Z,101344.03
2022-09-23T03:36:16.220Z,101357.50
2022-09-23T03:38:44.303Z,101345.94
2022-09-23T03:41:12.080Z,101342.34
2022-09-23T03:43:39.227Z,101341.53
2022-09-23T03:46:08.210Z,101337.13
2022-09-23T03:48:35.386Z,101333.53
2022-09-23T03:51:06.096Z,101333.28
2022-09-23T03:53:33.181Z,101340.69
2022-09-23T03:56:00.807Z,101336.25
2022-09-23T03:58:27.890Z,101331.63
2022-09-23T04:00:55.535Z,101328.03
2022-09-23T04:03:22.757Z,101322.53
2022-09-23T04:05:49.903Z,101325.88
2022-09-23T04:08:16.987Z,101324.47
2022-09-23T04:10:44.176Z,101321.50
2022-09-23T04:13:11.359Z,101324.22
2022-09-23T04:15:38.459Z,101315.19
2022-09-23T04:18:05.511Z,101321.50
2022-09-23T04:20:35.000Z,101315.41
2022-09-23T04:23:02.114Z,101309.09
2022-09-23T04:25:29.275Z,101316.47
2022-09-23T04:27:56.746Z,101315.19
2022-09-23T04:30:23.956Z,101321.94
2022-09-23T04:32:52.266Z,101316.47
2022-09-23T04:35:19.391Z,101316.97
2022-09-23T04:37:47.800Z,101307.06
2022-09-23T04:40:15.023Z,101313.38
2022-09-23T04:42:42.225Z,101311.25
2022-09-23T04:45:09.590Z,101313.13
2022-09-23T04:47:36.971Z,101312.06
2022-09-23T04:50:04.163Z,101314.00
2022-09-23T04:52:31.425Z,101316.72
2022-09-23T04:54:58.567Z,101321.94
2022-09-23T04:57:25.890Z,101319.81
2022-09-23T04:59:55.423Z,101317.31
2022-09-23T05:02:22.770Z,101318.97
2022-09-23T05:04:50.552Z,101325.56
2022-09-23T05:07:20.175Z,101322.22
2022-09-23T05:09:49.237Z,101319.47
2022-09-23T05:12:16.319Z,101322.22
2022-09-23T05:14:43.544Z,101332.34
2022-09-23T05:17:11.693Z,101328.75
2022-09-23T05:19:38.806Z,101331.28
2022-09-23T05:22:06.151Z,101334.63
2022-09-23T05:24:33.231Z,101332.69
2022-09-23T05:27:00.919Z,101332.94
2022-09-23T05:29:29.053Z,101332.94
2022-09-23T05:31:56.218Z,101331.03
2022-09-23T05:34:23.441Z,101336.25
2022-09-23T05:36:53.471Z,101335.66
2022-09-23T05:39:20.620Z,101335.44
2022-09-23T05:41:49.655Z,101326.63
2022-09-23T05:44:17.894Z,101325.78
2022-09-23T05:46:45.149Z,101323.88
2022-09-23T05:49:12.501Z,101327.44
2022-09-23T05:51:39.683Z,101329.13
2022-09-23T05:54:07.074Z,101332.94
2022-09-23T05:56:34.761Z,101324.97
2022-09-23T05:59:02.229Z,101332.94
2022-09-23T06:01:33.488Z,101318.38
2022-09-23T06:04:01.297Z,101317.31
2022-09-23T06:06:34.626Z,101329.34
2022-09-23T06:09:01.829Z,101318.38
2022-09-23T06:11:32.798Z,101316.47
2022-09-23T06:14:02.929Z,101317.31
2022-09-23T06:16:31.016Z,101326.97
2022-09-23T06:19:05.041Z,101320.66
2022-09-23T06:21:32.958Z,101326.97
2022-09-23T06:24:00.701Z,101322.31
2022-09-23T06:26:31.222Z,101319.56
2022-09-23T06:28:59.103Z,101322.31
2022-09-23T06:31:26.226Z,101321.00
2022-09-23T06:34:03.315Z,101319.94
2022-09-23T06:36:42.620Z,101319.69
2022-09-23T06:39:10.806Z,101325.19
2022-09-23T06:41:38.393Z,101316.69
2022-09-23T06:44:12.363Z,101318.59
2022-09-23T06:46:39.550Z,101321.94
2022-09-23T06:49:06.722Z,101314.56
2022-09-23T06:51:34.138Z,101320.06
2022-09-23T06:54:01.202Z,101315.41
2022-09-23T06:56:28.400Z,101322.53
2022-09-23T06:58:55.612Z,101321.47
2022-09-23T07:01:23.296Z,101319.56
2022-09-23T07:03:52.579Z,101317.63
2022-09-23T07:06:21.005Z,101321.25
2022-09-23T07:08:50.083Z,101314.91
2022-09-23T07:11:19.409Z,101327.91
2022-09-23T07:13:46.596Z,101325.16
2022-09-23T07:16:13.758Z,101322.16
2022-09-23T07:18:41.138Z,101324.91
2022-09-23T07:21:17.959Z,101326.59
2022-09-23T07:23:46.047Z,101339.00
2022-09-23T07:26:13.522Z,101333.25
2022-09-23T07:28:40.701Z,101338.75
2022-09-23T07:31:09.764Z,101343.19
2022-09-23T07:33:37.334Z,101336.84
2022-09-23T07:36:05.603Z,101336.59
2022-09-23T07:38:32.703Z,101337.19
2022-09-23T07:41:07.565Z,101340.75
2022-09-23T07:43:34.810Z,101339.69
2022-09-23T07:46:05.362Z,101345.19
2022-09-23T07:48:34.523Z,101341.94
2022-09-23T07:51:12.113Z,101341.47
2022-09-23T07:53:39.295Z,101345.88
2022-09-23T07:56:06.670Z,101350.06
2022-09-23T07:58:34.151Z,101351.47
2022-09-23T08:01:02.162Z,101343.25
2022-09-23T08:03:29.342Z,101349.94
2022-09-23T08:06:03.912Z,101352.66
2022-09-23T08:08:31.083Z,101344.44
2022-09-23T08:11:04.412Z,101339.53
2022-09-23T08:13:32.120Z,101345.63
2022-09-23T08:15:59.352Z,101345.38
2022-09-23T08:18:29.175Z,101347.88
2022-09-23T08:20:56.261Z,101347.88
2022-09-23T08:23:23.469Z,101353.16
2022-09-23T08:25:59.527Z,101351.22
2022-09-23T08:28:28.075Z,101340.25
2022-09-23T08:30:55.268Z,101340.84
2022-09-23T08:33:23.559Z,101340.84
2022-09-23T08:35:51.209Z,101346.56
2022-09-23T08:38:18.875Z,101346.78
2022-09-23T08:40:47.480Z,101349.53
2022-09-23T08:43:18.010Z,101351.22
2022-09-23T08:45:45.115Z,101353.97
2022-09-23T08:48:15.801Z,101345.72
2022-09-23T08:50:50.230Z,101350.41
2022-09-23T08:53:23.704Z,101347.38
2022-09-23T08:55:52.890Z,101350.13
2022-09-23T08:58:25.224Z,101343.81
2022-09-23T09:01:12.912Z,101347.38
2022-09-23T09:03:50.502Z,101344.91
2022-09-23T09:06:27.715Z,101339.41
2022-09-23T09:08:55.657Z,101338.56
2022-09-23T09:11:23.555Z,101344.03
2022-09-23T09:13:56.589Z,101333.06
2022-09-23T09:16:58.446Z,101333.06
2022-09-23T09:19:20.027Z,101333.34
2022-09-23T09:21:48.025Z,101329.50
2022-09-23T09:24:19.699Z,101331.41
2022-09-23T09:26:46.845Z,101329.72
2022-09-23T09:29:35.321Z,101331.19
2022-09-23T09:32:08.725Z,101318.50
2022-09-23T09:34:41.338Z,101321.03
2022-09-23T09:37:09.234Z,101318.28
2022-09-23T09:39:36.416Z,101320.19
2022-09-23T09:42:03.919Z,101311.09
2022-09-23T09:44:50.056Z,101312.78
2022-09-23T09:47:36.037Z,101317.44
2022-09-23T09:50:06.083Z,101321.25
2022-09-23T09:52:33.270Z,101311.94
2022-09-23T09:55:12.404Z,101321.03
2022-09-23T09:57:47.919Z,101322.06
2022-09-23T10:00:18.985Z,101318.28
2022-09-23T10:02:46.215Z,101318.28
2022-09-23T10:05:27.101Z,101316.59
2022-09-23T10:07:54.443Z,101315.75
2022-09-23T10:10:32.500Z,101310.50
2022-09-23T10:13:02.555Z,101311.94
2022-09-23T10:15:34.679Z,101308.84
2022-09-23T10:18:02.041Z,101306.09
2022-09-23T10:20:34.996Z,101305.00
2022-09-23T10:23:08.718Z,101302.28
2022-09-23T10:25:36.163Z,101313.25
2022-09-23T10:28:23.231Z,101305.59
2022-09-23T10:31:07.035Z,101302.03
2022-09-23T10:33:34.196Z,101298.22
2022-09-23T10:36:01.330Z,101308.34
2022-09-23T10:38:28.471Z,101300.97
2022-09-23T10:41:17.147Z,101308.63
2022-09-23T10:44:05.919Z,101297.38
2022-09-23T10:46:39.498Z,101298.47
2022-09-23T10:49:10.012Z,101298.47
2022-09-23T10:51:38.754Z,101292.72
2022-09-23T10:54:08.595Z,101285.31
2022-09-23T10:56:36.526Z,101286.97
2022-09-23T10:59:06.667Z,101293.31
2022-09-23T11:01:52.834Z,101286.72
2022-09-23T11:04:46.227Z,101278.72
2022-09-23T11:07:21.367Z,101276.56
2022-09-23T11:09:51.462Z,101273.00
2022-09-23T11:12:19.943Z,101262.84
2022-09-23T11:15:07.304Z,101269.22
2022-09-23T11:17:48.065Z,101267.31
2022-09-23T11:20:36.046Z,101266.22
2022-09-23T11:23:12.544Z,101265.38
2022-09-23T11:25:46.665Z,101259.91
2022-09-23T11:28:23.403Z,101263.47
2022-09-23T11:31:10.208Z,101245.94
2022-09-23T11:33:42.468Z,101242.09
2022-09-23T11:36:10.879Z,101236.59
2022-09-23T11:38:39.638Z,101236.59
2022-09-23T11:41:13.979Z,101234.69
2022-09-23T11:43:41.101Z,101230.84
2022-09-23T11:46:17.762Z,101228.09
2022-09-23T11:48:50.314Z,101230.84
2022-09-23T11:51:31.976Z,101222.84
2022-09-23T11:54:20.910Z,101223.72
2022-09-23T11:56:50.742Z,101220.97
2022-09-23T11:59:40.511Z,101215.47
2022-09-23T12:02:19.265Z,101215.19
2022-09-23T12:04:58.826Z,101211.63
2022-09-23T12:07:41.931Z,101217.13
2022-09-23T12:10:09.753Z,101206.97
2022-09-23T12:12:39.585Z,101201.47
2022-09-23T12:15:11.390Z,101205.06
2022-09-23T12:17:41.573Z,101196.84
2022-09-23T12:20:16.334Z,101195.16
2022-09-23T12:23:06.028Z,101197.66
2022-09-23T12:25:46.578Z,101196.84
2022-09-23T12:28:18.392Z,101190.25
2022-09-23T12:30:47.181Z,101193.00
2022-09-23T12:33:14.644Z,101193.00
2022-09-23T12:35:42.456Z,101187.75
2022-09-23T12:38:19.677Z,101188.59
2022-09-23T12:40:52.279Z,101194.69
2022-09-23T12:43:20.149Z,101183.69
2022-09-23T12:45:48.146Z,101182.84
2022-09-23T12:48:18.091Z,101188.31
2022-09-23T12:50:47.961Z,101182.84
2022-09-23T12:53:30.030Z,101170.19
2022-09-23T12:55:57.171Z,101171.03
2022-09-23T12:58:42.668Z,101166.34
2022-09-23T13:01:10.135Z,101163.88
2022-09-23T13:03:55.926Z,101172.13
2022-09-23T13:06:41.324Z,101163.03
2022-09-23T13:09:19.271Z,101158.38
2022-09-23T13:11:48.034Z,101154.53
2022-09-23T13:14:15.998Z,101149.88
2022-09-23T13:16:46.186Z,101142.50
2022-09-23T13:19:25.664Z,101140.00
2022-09-23T13:22:04.629Z,101135.31
2022-09-23T13:24:40.913Z,101137.81
2022-09-23T13:27:21.028Z,101136.41
2022-09-23T13:30:05.049Z,101144.38
2022-09-23T13:32:37.632Z,101137.25
2022-09-23T13:35:04.866Z,101133.41
2022-09-23T13:37:37.896Z,101125.44
2022-09-23T13:40:17.479Z,101128.25
2022-09-23T13:42:44.898Z,101118.13
2022-09-23T13:45:13.576Z,101121.94
2022-09-23T13:47:40.738Z,101125.78
2022-09-23T13:50:12.280Z,101126.84
2022-09-23T13:52:39.374Z,101122.41
2022-09-23T13:55:06.723Z,101118.84
2022-09-23T13:57:34.184Z,101118.84
2022-09-23T14:00:02.027Z,101116.91
2022-09-23T14:02:31.434Z,101113.34
2022-09-23T14:04:58.913Z,101104.88
2022-09-23T14:07:26.648Z,101114.78
2022-09-23T14:09:54.356Z,101102.13
2022-09-23T14:12:24.500Z,101102.13
2022-09-23T14:14:51.841Z,101104.88
2022-09-23T14:17:20.237Z,101101.28
2022-09-23T14:19:47.367Z,101087.56
2022-09-23T14:22:29.830Z,101090.31
2022-09-23T14:24:57.015Z,101085.66
2022-09-23T14:27:28.439Z,101088.38
2022-09-23T14:29:55.559Z,101082.66
2022-09-23T14:32:24.966Z,101088.97
2022-09-23T14:34:52.895Z,101088.97
2022-09-23T14:37:44.693Z,101081.81
2022-09-23T14:40:18.979Z,101077.41
2022-09-23T14:42:51.466Z,101075.72
2022-09-23T14:45:19.935Z,101070.84
2022-09-23T14:47:48.385Z,101076.34
2022-09-23T14:50:34.733Z,101068.34
2022-09-23T14:53:02.121Z,101063.66
2022-09-23T14:55:29.395Z,101073.59
2022-09-23T14:58:03.560Z,101071.66
2022-09-23T15:00:31.528Z,101062.59
2022-09-23T15:03:02.021Z,101070.00
2022-09-23T15:05:42.360Z,101066.19
2022-09-23T15:08:10.793Z,101056.00
2022-09-23T15:10:39.060Z,101068.91
2022-09-23T15:13:11.651Z,101068.91
2022-09-23T15:15:38.712Z,101071.66
2022-09-23T15:18:06.370Z,101071.66
2022-09-23T15:20:33.501Z,101058.75
2022-09-23T15:23:01.130Z,101063.19
2022-09-23T15:25:35.625Z,101059.59
2022-09-23T15:28:08.478Z,101067.00
2022-09-23T15:30:35.691Z,101067.81
2022-09-23T15:33:02.846Z,101061.50
2022-09-23T15:35:32.227Z,101065.06
2022-09-23T15:38:00.584Z,101054.94
2022-09-23T15:40:29.180Z,101056.00
2022-09-23T15:42:57.050Z,101047.78
2022-09-23T15:45:43.871Z,101046.94
2022-09-23T15:48:12.103Z,101048.00
2022-09-23T15:50:40.467Z,101043.38
2022-09-23T15:53:07.566Z,101048.00
2022-09-23T15:55:34.652Z,101037.88
2022-09-23T15:58:01.827Z,101035.13
2022-09-23T16:00:28.945Z,101038.72
2022-09-23T16:02:56.470Z,101048.59
2022-09-23T16:05:34.785Z,101035.72
2022-09-23T16:08:07.861Z,101039.03
2022-09-23T16:10:36.260Z,101037.38
2022-09-23T16:13:03.736Z,101033.22
2022-09-23T16:15:33.732Z,101034.03
2022-09-23T16:18:01.039Z,101038.47
2022-09-23T16:20:29.833Z,101046.72
2022-09-23T16:22:58.000Z,101039.28
2022-09-23T16:25:29.600Z,101041.22
2022-09-23T16:27:57.091Z,101031.06
2022-09-23T16:30:24.681Z,101037.63
2022-09-23T16:32:52.150Z,101040.94
2022-09-23T16:35:20.473Z,101045.38
2022-09-23T16:37:51.240Z,101037.94
2022-09-23T16:40:22.397Z,101034.88
2022-09-23T16:42:52.058Z,101035.13
2022-09-23T16:45:22.211Z,101035.13
2022-09-23T16:47:51.368Z,101029.91
2022-09-23T16:50:19.911Z,101032.88
2022-09-23T16:52:47.240Z,101032.06
2022-09-23T16:55:14.442Z,101024.88
2022-09-23T16:57:41.749Z,101030.97
2022-09-23T17:00:31.150Z,101032.06
2022-09-23T17:03:17.354Z,101033.72
2022-09-23T17:05:46.773Z,101036.69
2022-09-23T17:08:14.626Z,101040.03
2022-09-23T17:10:45.123Z,101037.56
2022-09-23T17:13:14.993Z,101035.63
2022-09-23T17:15:42.325Z,101036.13
2022-09-23T17:18:09.455Z,101035.06
2022-09-23T17:20:36.634Z,101037.56
2022-09-23T17:23:05.458Z,101035.06
2022-09-23T17:25:33.998Z,101042.72
2022-09-23T17:28:01.561Z,101039.13
2022-09-23T17:30:28.854Z,101045.69
2022-09-23T17:32:55.962Z,101044.63
2022-09-23T17:35:23.070Z,101039.97
2022-09-23T17:37:50.578Z,101047.63
2022-09-23T17:40:18.034Z,101051.41
2022-09-23T17:42:45.319Z,101039.84
2022-09-23T17:45:12.878Z,101044.50
2022-09-23T17:47:41.825Z,101044.50
2022-09-23T17:50:09.175Z,101043.09
2022-09-23T17:52:37.373Z,101045.84
2022-09-23T17:55:04.689Z,101045.84
2022-09-23T17:57:31.818Z,101048.25
2022-09-23T17:59:58.972Z,101037.28
2022-09-23T18:02:26.200Z,101044.09
2022-09-23T18:04:53.503Z,101049.84
2022-09-23T18:07:20.592Z,101056.41
2022-09-23T18:09:47.680Z,101051.19
2022-09-23T18:12:14.880Z,101053.94
2022-09-23T18:14:42.027Z,101066.78
2022-09-23T18:17:09.122Z,101064.31
2022-09-23T18:19:36.267Z,101069.81
2022-09-23T18:22:03.410Z,101068.97
2022-09-23T18:24:33.494Z,101074.72
2022-09-23T18:27:01.255Z,101077.47
2022-09-23T18:29:28.651Z,101074.09
2022-09-23T18:31:57.854Z,101078.53
2022-09-23T18:34:25.310Z,101083.19
2022-09-23T18:36:56.000Z,101081.53
2022-09-23T18:39:23.238Z,101079.88
2022-09-23T18:41:51.275Z,101080.69
2022-09-23T18:44:19.910Z,101083.44
2022-09-23T18:46:46.986Z,101086.19
2022-09-23T18:49:34.758Z,101082.03
2022-09-23T18:52:03.323Z,101083.91
2022-09-23T18:54:33.800Z,101083.91
2022-09-23T18:57:01.251Z,101085.03
2022-09-23T18:59:29.580Z,101077.84
2022-09-23T19:01:56.898Z,101090.75
2022-09-23T19:04:24.540Z,101087.19
2022-09-23T19:06:51.627Z,101086.94
2022-09-23T19:09:19.580Z,101085.25
2022-09-23T19:11:52.514Z,101091.56
2022-09-23T19:14:19.843Z,101088.00
2022-09-23T19:16:49.078Z,101089.09
2022-09-23T19:19:18.945Z,101091.84
2022-09-23T19:21:46.140Z,101084.44
2022-09-23T19:24:15.825Z,101083.63
2022-09-23T19:26:43.427Z,101085.25
2022-09-23T19:29:14.225Z,101077.03
2022-09-23T19:31:41.818Z,101076.19
2022-09-23T19:34:12.606Z,101080.59
2022-09-23T19:36:40.411Z,101072.34
2022-09-23T19:39:08.686Z,101082.75
2022-09-23T19:41:35.794Z,101070.13
2022-09-23T19:44:03.322Z,101078.94
2022-09-23T19:46:31.200Z,101071.53
2022-09-23T19:48:58.577Z,101066.28
2022-09-23T19:51:25.879Z,101066.28
2022-09-23T19:53:53.032Z,101062.47
2022-09-23T19:56:20.231Z,101068.22
2022-09-23T19:58:48.392Z,101062.72
2022-09-23T20:01:16.371Z,101065.47
2022-09-23T20:03:49.981Z,101069.03
2022-09-23T20:06:17.453Z,101069.88
2022-09-23T20:08:44.659Z,101064.13
2022-09-23T20:11:15.799Z,101060.31
2022-09-23T20:13:43.970Z,101061.97
2022-09-23T20:16:14.263Z,101070.47
2022-09-23T20:18:41.687Z,101074.88
2022-09-23T20:21:09.767Z,101076.53
2022-09-23T20:23:36.893Z,101072.94
2022-09-23T20:26:22.613Z,101068.31
2022-09-23T20:28:49.808Z,101073.81
2022-09-23T20:31:17.225Z,101074.63
2022-09-23T20:33:46.163Z,101075.44
2022-09-23T20:36:13.483Z,101086.44
2022-09-23T20:38:40.649Z,101076.28
2022-09-23T20:41:08.275Z,101074.38
2022-09-23T20:43:35.408Z,101080.69
2022-09-23T20:46:03.281Z,101084.25
2022-09-23T20:48:31.042Z,101089.75
2022-09-23T20:51:04.648Z,101092.25
2022-09-23T20:53:32.311Z,101084.59
2022-09-23T20:55:59.473Z,101086.28
2022-09-23T20:58:27.258Z,101090.69
2022-09-23T21:00:59.195Z,101096.16
2022-09-23T21:03:26.591Z,101093.94
2022-09-23T21:05:53.724Z,101095.81
2022-09-23T21:08:20.842Z,101089.50
2022-09-23T21:10:54.889Z,101099.44
2022-09-23T21:13:22.082Z,101087.59
2022-09-23T21:15:49.404Z,101097.75
2022-09-23T21:18:21.708Z,101097.16
2022-09-23T21:20:55.791Z,101106.47
2022-09-23T21:23:29.610Z,101103.72
2022-09-23T21:26:04.240Z,101098.22
2022-09-23T21:28:32.146Z,101095.25
2022-09-23T21:31:00.051Z,101089.75
2022-09-23T21:33:30.931Z,101099.66
2022-09-23T21:35:58.202Z,101096.34
2022-09-23T21:38:25.347Z,101102.66
2022-09-23T21:40:58.926Z,101105.16
2022-09-23T21:43:26.444Z,101106.22
2022-09-23T21:45:58.885Z,101096.34
2022-09-23T21:48:29.416Z,101098.22
2022-09-23T21:51:00.278Z,101105.63
2022-09-23T21:53:29.461Z,101105.63
2022-09-23T21:56:05.675Z,101102.91
2022-09-23T21:58:33.148Z,101103.47
2022-09-23T22:01:01.188Z,101092.75
2022-09-23T22:03:29.177Z,101095.47
2022-09-23T22:06:02.655Z,101100.16
2022-09-23T22:08:30.549Z,101104.81
2022-09-23T22:10:57.667Z,101106.75
2022-09-23T22:13:24.807Z,101103.13
2022-09-23T22:15:52.036Z,101103.13
2022-09-23T22:18:20.015Z,101105.88
2022-09-23T22:20:47.795Z,101106.75
2022-09-23T22:23:15.265Z,101108.63
2022-09-23T22:25:42.444Z,101104.81
2022-09-23T22:28:28.279Z,101108.63
2022-09-23T22:31:13.993Z,101111.66
2022-09-23T22:33:41.103Z,101102.56
2022-09-23T22:36:11.499Z,101102.56
2022-09-23T22:38:41.555Z,101103.66
2022-09-23T22:41:08.698Z,101103.06
2022-09-23T22:43:37.400Z,101103.66
2022-09-23T22:46:04.574Z,101096.75
2022-09-23T22:48:33.307Z,101099.50
2022-09-23T22:51:03.547Z,101101.38
2022-09-23T22:53:30.632Z,101100.31
2022-09-23T22:56:00.114Z,101093.72
2022-09-23T22:58:32.479Z,101096.47
2022-09-23T23:01:00.074Z,101097.56
2022-09-23T23:03:27.366Z,101087.94
2022-09-23T23:05:57.605Z,101095.31
2022-09-23T23:08:24.694Z,101098.06
2022-09-23T23:10:51.812Z,101093.66
2022-09-23T23:13:19.251Z,101090.91
2022-09-23T23:15:47.077Z,101088.16
2022-09-23T23:18:14.236Z,101087.06
2022-09-23T23:20:41.680Z,101087.31
2022-09-23T23:23:08.986Z,101086.50
2022-09-23T23:25:36.106Z,101080.75
2022-09-23T23:28:05.610Z,101086.25
2022-09-23T23:30:33.118Z,101083.50
2022-09-23T23:33:00.346Z,101090.41
2022-09-23T23:35:27.752Z,101086.59
2022-09-23T23:37:54.839Z,101082.16
2022-09-23T23:40:22.869Z,101077.53
2022-09-23T23:42:50.017Z,101082.16
2022-09-23T23:45:18.043Z,101076.44
2022-09-23T23:47:45.383Z,101076.19
2022-09-23T23:50:12.463Z,101078.94
2022-09-23T23:52:39.592Z,101077.03
2022-09-23T23:55:06.753Z,101062.47
2022-09-23T23:57:33.878Z,101064.13
